Greenbelt, Maryland
Current Conditions -  °F | °C
As of 2:25 AM on Wednesday 26 Nov 2014 (Local Time) from KCGS Reporting Station
Overcast Overcast  
Wind Chill: 46°   Ceiling: 8500
Heat Index: 46°   Visibility: 10mi
Dew Point: 36°   Wind: 0mph
Humidity: 66%   Direction: NA
Pressure: 30.13"   Gusts: NA
Location:  39°N, 76.88°W
Report Text: KCGS 260725Z AUTO 00000KT 10SM SCT060 BKN085 OVC120 08/02 A3013 RMK AO1
Loading
Personal Weather Stations






























Interactive Weather Map New forecast layout! Learn more

10-Day Weather Forecast

Advertisements
Track Severe Weather on mobile